Oriana — ZCDU9 — position and weather

sailwx.info

Track history (hours):
 
Tides and Currents Weather Stations Pressure Air Temp Water Temp Dewpoint Dewpoint Depression Visibility Wind Speed Wind Dir Waves Ship Positions

Oriana (Bermuda)

Last reported at 2019-Oct-18 07:29 UTC. Time now 2019-Oct-19 00:10 UTC.
Position N 25°04' E 120°51'.

Length 261 m; beam 32.2 m; draft 8.2 m.

Type: Ship. MMSI: 310529000.

Date/timePositionNaut miles runAvg speedWind from/ knotsBaromVisibWave heightAir tempDewpointWater temp
2019-Oct-18 07:29N 25°04' E 120°51'919.2
2019-Oct-18 07:00N 25°08' E 120°60'1019.1
2019-Oct-18 06:31N 25°14' E 121°09'918.7
2019-Oct-18 06:01N 25°19' E 121°18'1018.9
2019-Oct-18 05:30N 25°23' E 121°27'  
2019-Oct-14 10:01N 21°44' E 114°05'118.4
2019-Oct-14 10:00N 21°44' E 114°04'918.4
2019-Oct-14 09:30N 21°47' E 113°55'1319.7
2019-Oct-14 08:51N 21°59' E 113°52'515.3
2019-Oct-14 08:30N 22°05' E 113°51'713.1
2019-Oct-14 08:00N 22°11' E 113°50'816.6
2019-Oct-14 07:30N 22°19' E 113°48'815.6
2019-Oct-14 07:00N 22°26' E 113°52'3 4.2
2019-Oct-14 06:23N 22°28' E 113°54'1 0.1
2019-Oct-13 23:33N 22°28' E 113°55'0 0.4
2019-Oct-13 23:30N 22°28' E 113°55'3 6.7
2019-Oct-13 23:00N 22°26' E 113°52'713.9
2019-Oct-13 22:31N 22°20' E 113°49'714.6
2019-Oct-13 22:00N 22°12' E 113°50'713.3
2019-Oct-13 21:30N 22°06' E 113°51'713.3
2019-Oct-13 21:00N 21°59' E 113°52'714.7
2019-Oct-13 20:30N 21°52' E 113°48'815.5
2019-Oct-13 20:00N 21°46' E 113°44'815.5
2019-Oct-13 19:30N 21°39' E 113°40'2715.5
2019-Oct-13 17:47N 21°18' E 113°22'42714.0
2019-Oct-12 11:12N 16°08' E 108°12'1 6.5
2019-Oct-12 11:00N 16°07' E 108°13'0 0.1
2019-Oct-12 10:30N 16°07' E 108°13'0 0.0
2019-Oct-12 10:00N 16°07' E 108°13'0 0.0
2019-Oct-12 09:30N 16°07' E 108°13'0 0.0
2019-Oct-12 09:00N 16°07' E 108°13'0 0.0
2019-Oct-12 08:30N 16°07' E 108°13'0 0.0
2019-Oct-12 08:00N 16°07' E 108°13'0 0.0
2019-Oct-12 07:30N 16°07' E 108°13'0 0.0
2019-Oct-12 07:00N 16°07' E 108°13'0 0.0
2019-Oct-12 06:30N 16°07' E 108°13'0 0.0
2019-Oct-12 06:00N 16°07' E 108°13'0 0.0
2019-Oct-12 05:30N 16°07' E 108°13'0 0.0
2019-Oct-12 04:57N 16°07' E 108°13'0 0.0
2019-Oct-12 04:30N 16°07' E 108°13'0 0.0
2019-Oct-12 04:00N 16°07' E 108°13'0 0.0
2019-Oct-12 03:30N 16°07' E 108°13'0 0.0
2019-Oct-12 03:00N 16°07' E 108°13'0 0.0
2019-Oct-12 02:30N 16°07' E 108°13'0 0.0
2019-Oct-12 02:00N 16°07' E 108°13'0 0.0
2019-Oct-12 01:30N 16°07' E 108°13'0 0.0
2019-Oct-12 01:00N 16°07' E 108°13'1 1.0
2019-Oct-12 00:30N 16°07' E 108°12'46912.0
2019-Oct-10 09:28N 21°52' E 113°48'711.1
2019-Oct-10 08:53N 21°58' E 113°51'410.8
2019-Oct-10 08:30N 22°02' E 113°51'710.3
2019-Oct-10 07:51N 22°09' E 113°50'515.7
2019-Oct-10 07:30N 22°14' E 113°49'714.3
2019-Oct-10 07:00N 22°21' E 113°49'713.3
2019-Oct-10 06:30N 22°27' E 113°53'2 0.4
2019-Oct-10 01:29N 22°28' E 113°54'0 0.0
2019-Oct-09 22:47N 22°28' E 113°54'0 0.0
2019-Oct-09 22:17N 22°28' E 113°54'0 0.0
2019-Oct-09 21:41N 22°28' E 113°54'0 0.0
2019-Oct-09 21:20N 22°28' E 113°54'0 0.0
2019-Oct-09 20:20N 22°28' E 113°54'0 0.0
2019-Oct-09 19:32N 22°28' E 113°54'0 0.0
2019-Oct-09 14:50N 22°28' E 113°54'0 0.0
2019-Oct-09 11:56N 22°28' E 113°54'0 0.0
2019-Oct-08 23:33N 22°28' E 113°54'0 3.6
2019-Oct-08 23:30N 22°28' E 113°54'3 6.6
2019-Oct-08 23:00N 22°26' E 113°52'612.8
2019-Oct-08 22:30N 22°20' E 113°49'714.8
2019-Oct-08 22:00N 22°13' E 113°50'714.0
2019-Oct-08 21:30N 22°06' E 113°51'510.3
2019-Oct-08 21:00N 22°01' E 113°53'912.1
2019-Oct-08 20:17N 21°52' E 113°53'311.9
2019-Oct-08 20:00N 21°49' E 113°54'611.9
2019-Oct-08 19:29N 21°44' E 113°57'  
Track history (hours):
 
Tides and Currents Weather Stations Pressure Air Temp Water Temp Dewpoint Dewpoint Depression Visibility Wind Speed Wind Dir Waves Ship Positions

Oriana (Bermuda)

Last reported at 2019-Oct-18 07:29 UTC. Time now 2019-Oct-19 00:10 UTC.
Position N 25°04' E 120°51'.

Length 261 m; beam 32.2 m; draft 8.2 m.

Type: Ship. MMSI: 310529000.

Date/timePositionNaut miles runAvg speedWind from/ knotsBaromVisibWave heightAir tempDewpointWater temp
2019-Oct-18 07:29N 25°04' E 120°51'919.2
2019-Oct-18 07:00N 25°08' E 120°60'1019.1
2019-Oct-18 06:31N 25°14' E 121°09'918.7
2019-Oct-18 06:01N 25°19' E 121°18'1018.9
2019-Oct-18 05:30N 25°23' E 121°27'  
2019-Oct-14 10:01N 21°44' E 114°05'118.4
2019-Oct-14 10:00N 21°44' E 114°04'918.4
2019-Oct-14 09:30N 21°47' E 113°55'1319.7
2019-Oct-14 08:51N 21°59' E 113°52'515.3
2019-Oct-14 08:30N 22°05' E 113°51'713.1
2019-Oct-14 08:00N 22°11' E 113°50'816.6
2019-Oct-14 07:30N 22°19' E 113°48'815.6
2019-Oct-14 07:00N 22°26' E 113°52'3 4.2
2019-Oct-14 06:23N 22°28' E 113°54'1 0.1
2019-Oct-13 23:33N 22°28' E 113°55'0 0.4
2019-Oct-13 23:30N 22°28' E 113°55'3 6.7
2019-Oct-13 23:00N 22°26' E 113°52'713.9
2019-Oct-13 22:31N 22°20' E 113°49'714.6
2019-Oct-13 22:00N 22°12' E 113°50'713.3
2019-Oct-13 21:30N 22°06' E 113°51'713.3
2019-Oct-13 21:00N 21°59' E 113°52'714.7
2019-Oct-13 20:30N 21°52' E 113°48'815.5
2019-Oct-13 20:00N 21°46' E 113°44'815.5
2019-Oct-13 19:30N 21°39' E 113°40'2715.5
2019-Oct-13 17:47N 21°18' E 113°22'42714.0
2019-Oct-12 11:12N 16°08' E 108°12'1 6.5
2019-Oct-12 11:00N 16°07' E 108°13'0 0.1
2019-Oct-12 10:30N 16°07' E 108°13'0 0.0
2019-Oct-12 10:00N 16°07' E 108°13'0 0.0
2019-Oct-12 09:30N 16°07' E 108°13'0 0.0
2019-Oct-12 09:00N 16°07' E 108°13'0 0.0
2019-Oct-12 08:30N 16°07' E 108°13'0 0.0
2019-Oct-12 08:00N 16°07' E 108°13'0 0.0
2019-Oct-12 07:30N 16°07' E 108°13'0 0.0
2019-Oct-12 07:00N 16°07' E 108°13'0 0.0
2019-Oct-12 06:30N 16°07' E 108°13'0 0.0
2019-Oct-12 06:00N 16°07' E 108°13'0 0.0
2019-Oct-12 05:30N 16°07' E 108°13'0 0.0
2019-Oct-12 04:57N 16°07' E 108°13'0 0.0
2019-Oct-12 04:30N 16°07' E 108°13'0 0.0
2019-Oct-12 04:00N 16°07' E 108°13'0 0.0
2019-Oct-12 03:30N 16°07' E 108°13'0 0.0
2019-Oct-12 03:00N 16°07' E 108°13'0 0.0
2019-Oct-12 02:30N 16°07' E 108°13'0 0.0
2019-Oct-12 02:00N 16°07' E 108°13'0 0.0
2019-Oct-12 01:30N 16°07' E 108°13'0 0.0
2019-Oct-12 01:00N 16°07' E 108°13'1 1.0
2019-Oct-12 00:30N 16°07' E 108°12'46912.0
2019-Oct-10 09:28N 21°52' E 113°48'711.1
2019-Oct-10 08:53N 21°58' E 113°51'410.8
2019-Oct-10 08:30N 22°02' E 113°51'710.3
2019-Oct-10 07:51N 22°09' E 113°50'515.7
2019-Oct-10 07:30N 22°14' E 113°49'714.3
2019-Oct-10 07:00N 22°21' E 113°49'713.3
2019-Oct-10 06:30N 22°27' E 113°53'2 0.4
2019-Oct-10 01:29N 22°28' E 113°54'0 0.0
2019-Oct-09 22:47N 22°28' E 113°54'0 0.0
2019-Oct-09 22:17N 22°28' E 113°54'0 0.0
2019-Oct-09 21:41N 22°28' E 113°54'0 0.0
2019-Oct-09 21:20N 22°28' E 113°54'0 0.0
2019-Oct-09 20:20N 22°28' E 113°54'0 0.0
2019-Oct-09 19:32N 22°28' E 113°54'0 0.0
2019-Oct-09 14:50N 22°28' E 113°54'0 0.0
2019-Oct-09 11:56N 22°28' E 113°54'0 0.0
2019-Oct-08 23:33N 22°28' E 113°54'0 3.6
2019-Oct-08 23:30N 22°28' E 113°54'3 6.6
2019-Oct-08 23:00N 22°26' E 113°52'612.8
2019-Oct-08 22:30N 22°20' E 113°49'714.8
2019-Oct-08 22:00N 22°13' E 113°50'714.0
2019-Oct-08 21:30N 22°06' E 113°51'510.3
2019-Oct-08 21:00N 22°01' E 113°53'912.1
2019-Oct-08 20:17N 21°52' E 113°53'311.9
2019-Oct-08 20:00N 21°49' E 113°54'611.9
2019-Oct-08 19:29N 21°44' E 113°57'  

Dump ship's entire track history